sensor_id;sensor_type;location;lat;lon;timestamp;P1;durP1;ratioP1;P2;durP2;ratioP2
3311;SDS011;1668;49.648;8.570;2022-10-18T00:01:19;5.90;;;4.97;;
3311;SDS011;1668;49.648;8.570;2022-10-18T00:03:47;12.30;;;6.60;;
3311;SDS011;1668;49.648;8.570;2022-10-18T00:06:15;10.23;;;6.00;;
3311;SDS011;1668;49.648;8.570;2022-10-18T00:08:42;8.93;;;5.60;;
3311;SDS011;1668;49.648;8.570;2022-10-18T00:11:11;10.60;;;6.30;;
3311;SDS011;1668;49.648;8.570;2022-10-18T00:13:46;8.27;;;6.40;;
3311;SDS011;1668;49.648;8.570;2022-10-18T00:16:13;9.77;;;5.20;;
3311;SDS011;1668;49.648;8.570;2022-10-18T00:18:42;9.93;;;6.70;;
3311;SDS011;1668;49.648;8.570;2022-10-18T00:21:10;7.80;;;6.37;;
3311;SDS011;1668;49.648;8.570;2022-10-18T00:23:40;10.07;;;7.00;;
3311;SDS011;1668;49.648;8.570;2022-10-18T00:26:09;16.93;;;7.20;;
3311;SDS011;1668;49.648;8.570;2022-10-18T00:28:38;9.00;;;6.53;;
3311;SDS011;1668;49.648;8.570;2022-10-18T00:31:09;11.33;;;7.07;;
3311;SDS011;1668;49.648;8.570;2022-10-18T00:33:37;9.60;;;6.67;;
3311;SDS011;1668;49.648;8.570;2022-10-18T00:36:05;10.60;;;7.30;;
3311;SDS011;1668;49.648;8.570;2022-10-18T00:38:32;13.03;;;7.17;;
3311;SDS011;1668;49.648;8.570;2022-10-18T00:41:00;13.70;;;7.00;;
3311;SDS011;1668;49.648;8.570;2022-10-18T00:43:27;10.40;;;6.70;;
3311;SDS011;1668;49.648;8.570;2022-10-18T00:45:54;12.10;;;6.90;;
3311;SDS011;1668;49.648;8.570;2022-10-18T00:48:21;14.77;;;6.77;;
3311;SDS011;1668;49.648;8.570;2022-10-18T00:50:49;9.27;;;6.60;;
3311;SDS011;1668;49.648;8.570;2022-10-18T00:53:18;10.50;;;6.67;;
3311;SDS011;1668;49.648;8.570;2022-10-18T00:55:47;8.23;;;6.50;;
3311;SDS011;1668;49.648;8.570;2022-10-18T00:58:16;10.43;;;7.07;;
3311;SDS011;1668;49.648;8.570;2022-10-18T01:00:44;13.83;;;7.10;;
3311;SDS011;1668;49.648;8.570;2022-10-18T01:03:11;9.03;;;6.33;;
3311;SDS011;1668;49.648;8.570;2022-10-18T01:05:40;7.37;;;6.27;;
3311;SDS011;1668;49.648;8.570;2022-10-18T01:08:16;15.33;;;7.00;;
3311;SDS011;1668;49.648;8.570;2022-10-18T01:10:56;15.33;;;6.60;;
3311;SDS011;1668;49.648;8.570;2022-10-18T01:13:37;10.50;;;6.97;;
3311;SDS011;1668;49.648;8.570;2022-10-18T01:16:11;16.27;;;7.03;;
3311;SDS011;1668;49.648;8.570;2022-10-18T01:18:44;9.57;;;6.67;;
3311;SDS011;1668;49.648;8.570;2022-10-18T01:21:16;12.43;;;6.23;;
3311;SDS011;1668;49.648;8.570;2022-10-18T01:27:11;18.53;;;6.77;;
3311;SDS011;1668;49.648;8.570;2022-10-18T01:30:05;12.10;;;6.33;;
3311;SDS011;1668;49.648;8.570;2022-10-18T01:32:49;7.60;;;6.40;;
3311;SDS011;1668;49.648;8.570;2022-10-18T01:35:21;9.57;;;6.70;;
3311;SDS011;1668;49.648;8.570;2022-10-18T01:37:51;12.67;;;6.13;;
3311;SDS011;1668;49.648;8.570;2022-10-18T01:40:24;11.00;;;6.10;;
3311;SDS011;1668;49.648;8.570;2022-10-18T01:42:53;8.33;;;6.43;;
3311;SDS011;1668;49.648;8.570;2022-10-18T01:45:21;11.10;;;6.63;;
3311;SDS011;1668;49.648;8.570;2022-10-18T01:47:50;9.80;;;6.47;;
3311;SDS011;1668;49.648;8.570;2022-10-18T01:50:26;10.43;;;6.10;;
3311;SDS011;1668;49.648;8.570;2022-10-18T01:52:54;9.37;;;6.43;;
3311;SDS011;1668;49.648;8.570;2022-10-18T01:55:22;8.20;;;6.50;;
3311;SDS011;1668;49.648;8.570;2022-10-18T01:57:56;8.40;;;6.40;;
3311;SDS011;1668;49.648;8.570;2022-10-18T02:00:31;13.63;;;6.80;;
3311;SDS011;1668;49.648;8.570;2022-10-18T02:03:03;8.40;;;6.00;;
3311;SDS011;1668;49.648;8.570;2022-10-18T02:05:37;9.67;;;5.97;;
3311;SDS011;1668;49.648;8.570;2022-10-18T02:08:10;7.27;;;6.23;;
3311;SDS011;1668;49.648;8.570;2022-10-18T02:10:43;8.67;;;5.77;;
3311;SDS011;1668;49.648;8.570;2022-10-18T02:13:15;13.50;;;6.63;;
3311;SDS011;1668;49.648;8.570;2022-10-18T02:15:47;11.40;;;6.50;;
3311;SDS011;1668;49.648;8.570;2022-10-18T02:18:17;13.90;;;6.77;;
3311;SDS011;1668;49.648;8.570;2022-10-18T02:20:48;11.00;;;5.80;;
3311;SDS011;1668;49.648;8.570;2022-10-18T02:23:18;12.40;;;5.70;;
3311;SDS011;1668;49.648;8.570;2022-10-18T02:25:49;8.67;;;5.57;;
3311;SDS011;1668;49.648;8.570;2022-10-18T02:28:17;11.03;;;7.07;;
3311;SDS011;1668;49.648;8.570;2022-10-18T02:30:46;9.77;;;6.40;;
3311;SDS011;1668;49.648;8.570;2022-10-18T02:33:21;11.17;;;6.30;;
3311;SDS011;1668;49.648;8.570;2022-10-18T02:35:54;8.87;;;6.20;;
3311;SDS011;1668;49.648;8.570;2022-10-18T02:38:26;13.50;;;6.60;;
3311;SDS011;1668;49.648;8.570;2022-10-18T02:40:55;13.73;;;6.13;;
3311;SDS011;1668;49.648;8.570;2022-10-18T02:43:23;11.53;;;5.97;;
3311;SDS011;1668;49.648;8.570;2022-10-18T02:45:51;8.13;;;5.80;;
3311;SDS011;1668;49.648;8.570;2022-10-18T02:48:18;8.00;;;6.27;;
3311;SDS011;1668;49.648;8.570;2022-10-18T02:50:45;11.30;;;6.30;;
3311;SDS011;1668;49.648;8.570;2022-10-18T02:53:12;9.80;;;5.80;;
3311;SDS011;1668;49.648;8.570;2022-10-18T02:55:39;9.53;;;5.83;;
3311;SDS011;1668;49.648;8.570;2022-10-18T02:58:06;16.20;;;6.30;;
3311;SDS011;1668;49.648;8.570;2022-10-18T03:00:32;11.50;;;6.47;;
3311;SDS011;1668;49.648;8.570;2022-10-18T03:03:01;9.60;;;6.87;;
3311;SDS011;1668;49.648;8.570;2022-10-18T03:05:28;12.40;;;6.33;;
3311;SDS011;1668;49.648;8.570;2022-10-18T03:07:55;9.43;;;6.87;;
3311;SDS011;1668;49.648;8.570;2022-10-18T03:10:22;17.20;;;6.83;;
3311;SDS011;1668;49.648;8.570;2022-10-18T03:12:49;15.17;;;7.10;;
3311;SDS011;1668;49.648;8.570;2022-10-18T03:15:16;12.70;;;6.07;;
3311;SDS011;1668;49.648;8.570;2022-10-18T03:17:43;10.27;;;6.40;;
3311;SDS011;1668;49.648;8.570;2022-10-18T03:20:11;8.33;;;6.40;;
3311;SDS011;1668;49.648;8.570;2022-10-18T03:22:38;9.00;;;6.57;;
3311;SDS011;1668;49.648;8.570;2022-10-18T03:25:05;12.83;;;6.20;;
3311;SDS011;1668;49.648;8.570;2022-10-18T03:27:32;8.37;;;6.00;;
3311;SDS011;1668;49.648;8.570;2022-10-18T03:29:59;7.67;;;5.57;;
3311;SDS011;1668;49.648;8.570;2022-10-18T03:32:26;9.87;;;7.30;;
3311;SDS011;1668;49.648;8.570;2022-10-18T03:34:53;18.13;;;7.67;;
3311;SDS011;1668;49.648;8.570;2022-10-18T03:37:21;19.60;;;7.33;;
3311;SDS011;1668;49.648;8.570;2022-10-18T03:39:48;14.73;;;7.73;;
3311;SDS011;1668;49.648;8.570;2022-10-18T03:42:15;13.00;;;7.67;;
3311;SDS011;1668;49.648;8.570;2022-10-18T03:44:42;10.70;;;7.07;;
3311;SDS011;1668;49.648;8.570;2022-10-18T03:47:09;9.93;;;7.73;;
3311;SDS011;1668;49.648;8.570;2022-10-18T03:49:36;12.37;;;7.20;;
3311;SDS011;1668;49.648;8.570;2022-10-18T03:52:03;10.47;;;7.10;;
3311;SDS011;1668;49.648;8.570;2022-10-18T03:54:31;16.60;;;8.23;;
3311;SDS011;1668;49.648;8.570;2022-10-18T03:56:58;10.73;;;7.30;;
3311;SDS011;1668;49.648;8.570;2022-10-18T03:59:25;12.93;;;7.40;;
3311;SDS011;1668;49.648;8.570;2022-10-18T04:01:52;14.07;;;7.90;;
3311;SDS011;1668;49.648;8.570;2022-10-18T04:04:19;10.83;;;6.93;;
3311;SDS011;1668;49.648;8.570;2022-10-18T04:06:46;12.93;;;7.60;;
3311;SDS011;1668;49.648;8.570;2022-10-18T04:09:12;12.03;;;7.60;;
3311;SDS011;1668;49.648;8.570;2022-10-18T04:11:41;10.27;;;7.20;;
3311;SDS011;1668;49.648;8.570;2022-10-18T04:14:08;13.40;;;7.17;;
3311;SDS011;1668;49.648;8.570;2022-10-18T04:16:35;14.63;;;8.10;;
3311;SDS011;1668;49.648;8.570;2022-10-18T04:19:02;11.90;;;7.33;;
3311;SDS011;1668;49.648;8.570;2022-10-18T04:21:28;9.73;;;7.00;;
3311;SDS011;1668;49.648;8.570;2022-10-18T04:23:55;11.20;;;6.40;;
3311;SDS011;1668;49.648;8.570;2022-10-18T04:26:22;11.63;;;7.30;;
3311;SDS011;1668;49.648;8.570;2022-10-18T04:28:50;10.30;;;6.83;;
3311;SDS011;1668;49.648;8.570;2022-10-18T04:31:17;10.77;;;6.90;;
3311;SDS011;1668;49.648;8.570;2022-10-18T04:33:44;14.67;;;7.07;;
3311;SDS011;1668;49.648;8.570;2022-10-18T04:36:11;8.50;;;6.63;;
3311;SDS011;1668;49.648;8.570;2022-10-18T04:38:38;12.20;;;7.13;;
3311;SDS011;1668;49.648;8.570;2022-10-18T04:41:05;9.83;;;7.00;;
3311;SDS011;1668;49.648;8.570;2022-10-18T04:43:31;11.10;;;7.40;;
3311;SDS011;1668;49.648;8.570;2022-10-18T04:46:00;13.37;;;6.70;;
3311;SDS011;1668;49.648;8.570;2022-10-18T04:48:27;10.57;;;7.00;;
3311;SDS011;1668;49.648;8.570;2022-10-18T04:50:54;11.80;;;6.97;;
3311;SDS011;1668;49.648;8.570;2022-10-18T04:53:21;12.37;;;6.90;;
3311;SDS011;1668;49.648;8.570;2022-10-18T04:55:48;17.67;;;6.93;;
3311;SDS011;1668;49.648;8.570;2022-10-18T04:58:15;11.23;;;7.70;;
3311;SDS011;1668;49.648;8.570;2022-10-18T05:00:42;13.10;;;7.40;;
3311;SDS011;1668;49.648;8.570;2022-10-18T05:03:13;12.83;;;7.33;;
3311;SDS011;1668;49.648;8.570;2022-10-18T05:05:41;11.63;;;7.10;;
3311;SDS011;1668;49.648;8.570;2022-10-18T05:08:10;11.43;;;7.40;;
3311;SDS011;1668;49.648;8.570;2022-10-18T05:10:37;10.63;;;6.67;;
3311;SDS011;1668;49.648;8.570;2022-10-18T05:13:04;17.33;;;7.83;;
3311;SDS011;1668;49.648;8.570;2022-10-18T05:15:30;13.93;;;7.67;;
3311;SDS011;1668;49.648;8.570;2022-10-18T05:17:57;12.13;;;7.50;;
3311;SDS011;1668;49.648;8.570;2022-10-18T05:20:25;13.33;;;7.37;;
3311;SDS011;1668;49.648;8.570;2022-10-18T05:22:52;12.40;;;7.50;;
3311;SDS011;1668;49.648;8.570;2022-10-18T05:25:19;14.40;;;7.63;;
3311;SDS011;1668;49.648;8.570;2022-10-18T05:27:46;8.30;;;7.07;;
3311;SDS011;1668;49.648;8.570;2022-10-18T05:30:13;13.70;;;7.50;;
3311;SDS011;1668;49.648;8.570;2022-10-18T05:32:40;11.63;;;7.20;;
3311;SDS011;1668;49.648;8.570;2022-10-18T05:35:07;14.43;;;7.97;;
3311;SDS011;1668;49.648;8.570;2022-10-18T05:37:37;19.17;;;8.43;;
3311;SDS011;1668;49.648;8.570;2022-10-18T05:40:04;14.50;;;8.00;;
3311;SDS011;1668;49.648;8.570;2022-10-18T05:42:32;13.23;;;7.50;;
3311;SDS011;1668;49.648;8.570;2022-10-18T05:44:58;11.97;;;8.03;;
3311;SDS011;1668;49.648;8.570;2022-10-18T05:47:25;11.87;;;7.60;;
3311;SDS011;1668;49.648;8.570;2022-10-18T05:49:52;13.20;;;7.20;;
3311;SDS011;1668;49.648;8.570;2022-10-18T05:52:19;14.97;;;7.40;;
3311;SDS011;1668;49.648;8.570;2022-10-18T05:54:47;15.63;;;8.63;;
3311;SDS011;1668;49.648;8.570;2022-10-18T05:57:14;17.80;;;7.70;;
3311;SDS011;1668;49.648;8.570;2022-10-18T05:59:41;9.30;;;7.50;;
3311;SDS011;1668;49.648;8.570;2022-10-18T06:02:09;15.43;;;8.10;;
3311;SDS011;1668;49.648;8.570;2022-10-18T06:04:36;10.47;;;8.00;;
3311;SDS011;1668;49.648;8.570;2022-10-18T06:07:06;9.40;;;7.43;;
3311;SDS011;1668;49.648;8.570;2022-10-18T06:09:33;17.57;;;7.30;;
3311;SDS011;1668;49.648;8.570;2022-10-18T06:12:02;11.57;;;7.47;;
3311;SDS011;1668;49.648;8.570;2022-10-18T06:14:29;12.57;;;7.10;;
3311;SDS011;1668;49.648;8.570;2022-10-18T06:16:56;13.30;;;7.97;;
3311;SDS011;1668;49.648;8.570;2022-10-18T06:19:23;9.27;;;7.43;;
3311;SDS011;1668;49.648;8.570;2022-10-18T06:21:50;13.40;;;8.30;;
3311;SDS011;1668;49.648;8.570;2022-10-18T06:24:17;12.27;;;9.33;;
3311;SDS011;1668;49.648;8.570;2022-10-18T06:26:45;12.07;;;8.30;;
3311;SDS011;1668;49.648;8.570;2022-10-18T06:29:14;12.63;;;8.17;;
3311;SDS011;1668;49.648;8.570;2022-10-18T06:31:41;11.20;;;8.33;;
3311;SDS011;1668;49.648;8.570;2022-10-18T06:34:08;14.90;;;8.00;;
3311;SDS011;1668;49.648;8.570;2022-10-18T06:36:35;14.27;;;8.40;;
3311;SDS011;1668;49.648;8.570;2022-10-18T06:39:02;11.00;;;7.80;;
3311;SDS011;1668;49.648;8.570;2022-10-18T06:41:29;12.90;;;8.10;;
3311;SDS011;1668;49.648;8.570;2022-10-18T06:43:56;12.90;;;7.90;;
3311;SDS011;1668;49.648;8.570;2022-10-18T06:46:28;14.30;;;7.67;;
3311;SDS011;1668;49.648;8.570;2022-10-18T06:48:55;8.83;;;7.57;;
3311;SDS011;1668;49.648;8.570;2022-10-18T06:51:22;13.87;;;7.60;;
3311;SDS011;1668;49.648;8.570;2022-10-18T06:53:49;13.70;;;7.70;;
3311;SDS011;1668;49.648;8.570;2022-10-18T06:56:16;11.77;;;7.50;;
3311;SDS011;1668;49.648;8.570;2022-10-18T06:58:42;11.87;;;7.97;;
3311;SDS011;1668;49.648;8.570;2022-10-18T07:01:10;15.00;;;8.10;;
3311;SDS011;1668;49.648;8.570;2022-10-18T07:03:41;12.20;;;8.10;;
3311;SDS011;1668;49.648;8.570;2022-10-18T07:06:09;13.30;;;7.60;;
3311;SDS011;1668;49.648;8.570;2022-10-18T07:08:37;15.53;;;7.47;;
3311;SDS011;1668;49.648;8.570;2022-10-18T07:11:05;10.90;;;7.67;;
3311;SDS011;1668;49.648;8.570;2022-10-18T07:13:33;17.53;;;8.13;;
3311;SDS011;1668;49.648;8.570;2022-10-18T07:16:01;14.00;;;7.13;;
3311;SDS011;1668;49.648;8.570;2022-10-18T07:18:29;17.90;;;7.70;;
3311;SDS011;1668;49.648;8.570;2022-10-18T07:21:00;13.43;;;7.30;;
3311;SDS011;1668;49.648;8.570;2022-10-18T07:23:30;10.43;;;7.17;;
3311;SDS011;1668;49.648;8.570;2022-10-18T07:25:58;9.90;;;7.37;;
3311;SDS011;1668;49.648;8.570;2022-10-18T07:28:25;14.57;;;6.73;;
3311;SDS011;1668;49.648;8.570;2022-10-18T07:30:53;8.83;;;6.70;;
3311;SDS011;1668;49.648;8.570;2022-10-18T07:33:19;10.90;;;7.20;;
3311;SDS011;1668;49.648;8.570;2022-10-18T07:35:47;7.50;;;6.03;;
3311;SDS011;1668;49.648;8.570;2022-10-18T07:38:15;11.70;;;7.20;;
3311;SDS011;1668;49.648;8.570;2022-10-18T07:40:42;12.53;;;7.27;;
3311;SDS011;1668;49.648;8.570;2022-10-18T07:43:09;15.50;;;10.73;;
3311;SDS011;1668;49.648;8.570;2022-10-18T07:45:36;13.63;;;8.60;;
3311;SDS011;1668;49.648;8.570;2022-10-18T07:48:03;10.20;;;8.40;;
3311;SDS011;1668;49.648;8.570;2022-10-18T07:50:30;9.50;;;8.03;;
3311;SDS011;1668;49.648;8.570;2022-10-18T07:52:57;12.63;;;7.40;;
3311;SDS011;1668;49.648;8.570;2022-10-18T07:55:25;9.83;;;6.77;;
3311;SDS011;1668;49.648;8.570;2022-10-18T07:57:52;19.57;;;7.87;;
3311;SDS011;1668;49.648;8.570;2022-10-18T08:00:19;13.37;;;7.77;;
3311;SDS011;1668;49.648;8.570;2022-10-18T08:02:46;11.80;;;7.53;;
3311;SDS011;1668;49.648;8.570;2022-10-18T08:05:13;11.37;;;6.90;;
3311;SDS011;1668;49.648;8.570;2022-10-18T08:07:40;13.17;;;7.43;;
3311;SDS011;1668;49.648;8.570;2022-10-18T08:10:07;9.13;;;7.87;;
3311;SDS011;1668;49.648;8.570;2022-10-18T08:12:36;11.90;;;7.53;;
3311;SDS011;1668;49.648;8.570;2022-10-18T08:15:03;10.17;;;8.17;;
3311;SDS011;1668;49.648;8.570;2022-10-18T08:17:30;15.87;;;8.33;;
3311;SDS011;1668;49.648;8.570;2022-10-18T08:19:57;27.07;;;9.57;;
3311;SDS011;1668;49.648;8.570;2022-10-18T08:22:24;10.80;;;8.43;;
3311;SDS011;1668;49.648;8.570;2022-10-18T08:24:51;13.27;;;7.63;;
3311;SDS011;1668;49.648;8.570;2022-10-18T08:27:18;13.73;;;7.47;;
3311;SDS011;1668;49.648;8.570;2022-10-18T08:29:46;9.27;;;7.27;;
3311;SDS011;1668;49.648;8.570;2022-10-18T08:32:13;11.00;;;7.50;;
3311;SDS011;1668;49.648;8.570;2022-10-18T08:34:40;14.83;;;8.20;;
3311;SDS011;1668;49.648;8.570;2022-10-18T08:37:07;13.83;;;8.20;;
3311;SDS011;1668;49.648;8.570;2022-10-18T08:39:34;10.73;;;7.83;;
3311;SDS011;1668;49.648;8.570;2022-10-18T08:42:10;14.03;;;8.70;;
3311;SDS011;1668;49.648;8.570;2022-10-18T08:44:54;11.80;;;8.27;;
3311;SDS011;1668;49.648;8.570;2022-10-18T08:47:22;12.10;;;8.43;;
3311;SDS011;1668;49.648;8.570;2022-10-18T08:49:58;13.67;;;9.23;;
3311;SDS011;1668;49.648;8.570;2022-10-18T08:52:30;12.40;;;8.70;;
3311;SDS011;1668;49.648;8.570;2022-10-18T08:55:00;15.03;;;9.30;;
3311;SDS011;1668;49.648;8.570;2022-10-18T08:57:32;12.20;;;8.93;;
3311;SDS011;1668;49.648;8.570;2022-10-18T09:00:02;11.87;;;8.90;;
3311;SDS011;1668;49.648;8.570;2022-10-18T09:02:40;13.90;;;8.53;;
3311;SDS011;1668;49.648;8.570;2022-10-18T09:05:21;9.23;;;7.80;;
3311;SDS011;1668;49.648;8.570;2022-10-18T09:08:06;17.53;;;9.70;;
3311;SDS011;1668;49.648;8.570;2022-10-18T09:10:48;17.43;;;10.10;;
3311;SDS011;1668;49.648;8.570;2022-10-18T09:13:40;14.43;;;8.70;;
3311;SDS011;1668;49.648;8.570;2022-10-18T09:16:43;12.10;;;9.03;;
3311;SDS011;1668;49.648;8.570;2022-10-18T09:19:17;18.53;;;9.40;;
3311;SDS011;1668;49.648;8.570;2022-10-18T09:21:52;15.73;;;9.47;;
3311;SDS011;1668;49.648;8.570;2022-10-18T09:24:23;13.00;;;8.80;;
3311;SDS011;1668;49.648;8.570;2022-10-18T09:26:55;16.53;;;8.73;;
3311;SDS011;1668;49.648;8.570;2022-10-18T09:29:29;12.10;;;8.30;;
3311;SDS011;1668;49.648;8.570;2022-10-18T09:32:16;13.63;;;9.13;;
3311;SDS011;1668;49.648;8.570;2022-10-18T09:34:50;14.73;;;9.40;;
3311;SDS011;1668;49.648;8.570;2022-10-18T09:37:21;15.27;;;10.47;;
3311;SDS011;1668;49.648;8.570;2022-10-18T09:39:54;14.40;;;9.10;;
3311;SDS011;1668;49.648;8.570;2022-10-18T09:42:29;11.03;;;9.17;;
3311;SDS011;1668;49.648;8.570;2022-10-18T09:45:02;12.73;;;8.60;;
3311;SDS011;1668;49.648;8.570;2022-10-18T09:47:35;13.93;;;8.30;;
3311;SDS011;1668;49.648;8.570;2022-10-18T09:50:13;10.13;;;8.50;;
3311;SDS011;1668;49.648;8.570;2022-10-18T09:52:49;11.77;;;9.00;;
3311;SDS011;1668;49.648;8.570;2022-10-18T09:55:30;12.57;;;8.87;;
3311;SDS011;1668;49.648;8.570;2022-10-18T09:58:01;15.03;;;8.90;;
3311;SDS011;1668;49.648;8.570;2022-10-18T10:00:32;13.13;;;8.80;;
3311;SDS011;1668;49.648;8.570;2022-10-18T10:03:08;9.93;;;8.27;;
3311;SDS011;1668;49.648;8.570;2022-10-18T10:05:36;11.33;;;8.33;;
3311;SDS011;1668;49.648;8.570;2022-10-18T10:08:04;12.07;;;7.27;;
3311;SDS011;1668;49.648;8.570;2022-10-18T10:10:32;14.60;;;7.90;;
3311;SDS011;1668;49.648;8.570;2022-10-18T10:13:02;12.47;;;7.47;;
3311;SDS011;1668;49.648;8.570;2022-10-18T10:15:31;14.70;;;7.60;;
3311;SDS011;1668;49.648;8.570;2022-10-18T10:18:01;11.97;;;7.40;;
3311;SDS011;1668;49.648;8.570;2022-10-18T10:20:32;14.20;;;7.87;;
3311;SDS011;1668;49.648;8.570;2022-10-18T10:23:06;14.63;;;7.07;;
3311;SDS011;1668;49.648;8.570;2022-10-18T10:25:35;11.03;;;7.10;;
3311;SDS011;1668;49.648;8.570;2022-10-18T10:28:04;11.97;;;7.77;;
3311;SDS011;1668;49.648;8.570;2022-10-18T10:30:37;11.70;;;7.53;;
3311;SDS011;1668;49.648;8.570;2022-10-18T10:33:04;12.73;;;6.40;;
3311;SDS011;1668;49.648;8.570;2022-10-18T10:35:36;10.53;;;6.97;;
3311;SDS011;1668;49.648;8.570;2022-10-18T10:38:04;9.60;;;6.90;;
3311;SDS011;1668;49.648;8.570;2022-10-18T10:40:32;11.23;;;7.00;;
3311;SDS011;1668;49.648;8.570;2022-10-18T10:43:12;8.13;;;6.17;;
3311;SDS011;1668;49.648;8.570;2022-10-18T10:45:51;12.63;;;6.40;;
3311;SDS011;1668;49.648;8.570;2022-10-18T10:48:22;6.30;;;5.33;;
3311;SDS011;1668;49.648;8.570;2022-10-18T10:50:53;13.87;;;6.20;;
3311;SDS011;1668;49.648;8.570;2022-10-18T10:56:17;10.63;;;6.03;;
3311;SDS011;1668;49.648;8.570;2022-10-18T10:58:48;8.57;;;6.40;;
3311;SDS011;1668;49.648;8.570;2022-10-18T11:01:17;6.70;;;6.00;;
3311;SDS011;1668;49.648;8.570;2022-10-18T11:03:51;11.20;;;6.30;;
3311;SDS011;1668;49.648;8.570;2022-10-18T11:06:32;11.43;;;6.63;;
3311;SDS011;1668;49.648;8.570;2022-10-18T11:09:16;9.97;;;6.20;;
3311;SDS011;1668;49.648;8.570;2022-10-18T11:12:01;7.30;;;5.47;;
3311;SDS011;1668;49.648;8.570;2022-10-18T11:14:36;7.00;;;5.87;;
3311;SDS011;1668;49.648;8.570;2022-10-18T11:17:10;7.60;;;5.90;;
3311;SDS011;1668;49.648;8.570;2022-10-18T11:19:51;10.63;;;6.10;;
3311;SDS011;1668;49.648;8.570;2022-10-18T11:22:28;6.57;;;5.90;;
3311;SDS011;1668;49.648;8.570;2022-10-18T11:25:00;7.53;;;5.73;;
3311;SDS011;1668;49.648;8.570;2022-10-18T11:27:29;7.87;;;5.60;;
3311;SDS011;1668;49.648;8.570;2022-10-18T11:30:02;11.57;;;6.43;;
3311;SDS011;1668;49.648;8.570;2022-10-18T11:32:46;6.80;;;5.50;;
3311;SDS011;1668;49.648;8.570;2022-10-18T11:38:14;7.53;;;5.83;;
3311;SDS011;1668;49.648;8.570;2022-10-18T11:40:53;9.30;;;6.07;;
3311;SDS011;1668;49.648;8.570;2022-10-18T11:43:33;6.87;;;5.60;;
3311;SDS011;1668;49.648;8.570;2022-10-18T11:46:08;8.60;;;5.80;;
3311;SDS011;1668;49.648;8.570;2022-10-18T11:48:47;9.83;;;5.57;;
3311;SDS011;1668;49.648;8.570;2022-10-18T11:51:26;13.27;;;6.33;;
3311;SDS011;1668;49.648;8.570;2022-10-18T11:54:03;6.90;;;5.27;;
3311;SDS011;1668;49.648;8.570;2022-10-18T11:56:44;8.53;;;5.83;;
3311;SDS011;1668;49.648;8.570;2022-10-18T11:59:23;9.80;;;5.00;;
3311;SDS011;1668;49.648;8.570;2022-10-18T12:01:58;4.47;;;3.43;;
3311;SDS011;1668;49.648;8.570;2022-10-18T12:04:37;6.30;;;3.10;;
3311;SDS011;1668;49.648;8.570;2022-10-18T12:07:08;4.37;;;2.53;;
3311;SDS011;1668;49.648;8.570;2022-10-18T12:09:42;3.67;;;2.00;;
3311;SDS011;1668;49.648;8.570;2022-10-18T12:12:13;4.23;;;2.50;;
3311;SDS011;1668;49.648;8.570;2022-10-18T12:14:45;4.73;;;3.37;;
3311;SDS011;1668;49.648;8.570;2022-10-18T12:17:17;7.23;;;3.53;;
3311;SDS011;1668;49.648;8.570;2022-10-18T12:19:48;9.13;;;3.93;;
3311;SDS011;1668;49.648;8.570;2022-10-18T12:22:17;9.30;;;3.90;;
3311;SDS011;1668;49.648;8.570;2022-10-18T12:24:49;7.17;;;4.00;;
3311;SDS011;1668;49.648;8.570;2022-10-18T12:27:16;4.73;;;3.63;;
3311;SDS011;1668;49.648;8.570;2022-10-18T12:29:49;5.77;;;4.10;;
3311;SDS011;1668;49.648;8.570;2022-10-18T12:32:24;8.77;;;4.03;;
3311;SDS011;1668;49.648;8.570;2022-10-18T12:34:55;5.83;;;3.80;;
3311;SDS011;1668;49.648;8.570;2022-10-18T12:40:19;7.70;;;4.57;;
3311;SDS011;1668;49.648;8.570;2022-10-18T12:42:48;5.50;;;4.00;;
3311;SDS011;1668;49.648;8.570;2022-10-18T12:45:19;5.50;;;4.23;;
3311;SDS011;1668;49.648;8.570;2022-10-18T12:47:50;5.47;;;3.40;;
3311;SDS011;1668;49.648;8.570;2022-10-18T12:50:23;5.50;;;3.70;;
3311;SDS011;1668;49.648;8.570;2022-10-18T12:53:04;6.07;;;4.10;;
3311;SDS011;1668;49.648;8.570;2022-10-18T12:55:42;6.20;;;4.03;;
3311;SDS011;1668;49.648;8.570;2022-10-18T12:58:24;5.50;;;3.73;;
3311;SDS011;1668;49.648;8.570;2022-10-18T13:00:56;5.40;;;3.60;;
3311;SDS011;1668;49.648;8.570;2022-10-18T13:07:01;6.33;;;3.60;;
3311;SDS011;1668;49.648;8.570;2022-10-18T13:09:37;4.60;;;3.10;;
3311;SDS011;1668;49.648;8.570;2022-10-18T13:15:20;5.27;;;3.63;;
3311;SDS011;1668;49.648;8.570;2022-10-18T13:18:03;6.60;;;3.87;;
3311;SDS011;1668;49.648;8.570;2022-10-18T13:20:40;4.97;;;3.90;;
3311;SDS011;1668;49.648;8.570;2022-10-18T13:23:15;6.43;;;3.50;;
3311;SDS011;1668;49.648;8.570;2022-10-18T13:25:59;5.87;;;3.23;;
3311;SDS011;1668;49.648;8.570;2022-10-18T13:28:38;5.90;;;3.53;;
3311;SDS011;1668;49.648;8.570;2022-10-18T13:31:15;5.00;;;2.77;;
3311;SDS011;1668;49.648;8.570;2022-10-18T13:33:47;5.03;;;2.57;;
3311;SDS011;1668;49.648;8.570;2022-10-18T13:36:21;4.80;;;2.97;;
3311;SDS011;1668;49.648;8.570;2022-10-18T13:39:03;6.97;;;3.13;;
3311;SDS011;1668;49.648;8.570;2022-10-18T13:41:31;3.80;;;2.60;;
3311;SDS011;1668;49.648;8.570;2022-10-18T13:44:24;4.60;;;3.33;;
3311;SDS011;1668;49.648;8.570;2022-10-18T13:56:07;5.00;;;3.00;;
3311;SDS011;1668;49.648;8.570;2022-10-18T13:58:47;4.93;;;2.90;;
3311;SDS011;1668;49.648;8.570;2022-10-18T14:01:26;5.90;;;2.57;;
3311;SDS011;1668;49.648;8.570;2022-10-18T14:07:04;6.20;;;3.20;;
3311;SDS011;1668;49.648;8.570;2022-10-18T14:09:33;3.67;;;3.20;;
3311;SDS011;1668;49.648;8.570;2022-10-18T14:12:10;5.87;;;2.83;;
3311;SDS011;1668;49.648;8.570;2022-10-18T14:14:47;3.10;;;2.80;;
3311;SDS011;1668;49.648;8.570;2022-10-18T14:17:24;3.10;;;2.73;;
3311;SDS011;1668;49.648;8.570;2022-10-18T14:19:57;4.07;;;2.70;;
3311;SDS011;1668;49.648;8.570;2022-10-18T14:22:29;7.47;;;2.20;;
3311;SDS011;1668;49.648;8.570;2022-10-18T14:25:01;4.70;;;2.30;;
3311;SDS011;1668;49.648;8.570;2022-10-18T14:27:29;4.00;;;2.83;;
3311;SDS011;1668;49.648;8.570;2022-10-18T14:30:06;3.77;;;2.30;;
3311;SDS011;1668;49.648;8.570;2022-10-18T14:32:35;5.13;;;2.80;;
3311;SDS011;1668;49.648;8.570;2022-10-18T14:35:04;4.43;;;3.00;;
3311;SDS011;1668;49.648;8.570;2022-10-18T14:37:42;5.53;;;3.00;;
3311;SDS011;1668;49.648;8.570;2022-10-18T14:40:25;4.13;;;2.83;;
3311;SDS011;1668;49.648;8.570;2022-10-18T14:42:53;4.00;;;3.33;;
3311;SDS011;1668;49.648;8.570;2022-10-18T14:45:20;5.43;;;3.00;;
3311;SDS011;1668;49.648;8.570;2022-10-18T14:47:48;3.70;;;2.93;;
3311;SDS011;1668;49.648;8.570;2022-10-18T14:50:24;3.50;;;3.00;;
3311;SDS011;1668;49.648;8.570;2022-10-18T14:52:53;3.80;;;3.00;;
3311;SDS011;1668;49.648;8.570;2022-10-18T14:55:22;5.50;;;3.43;;
3311;SDS011;1668;49.648;8.570;2022-10-18T14:57:50;5.00;;;3.17;;
3311;SDS011;1668;49.648;8.570;2022-10-18T15:00:18;6.33;;;3.47;;
3311;SDS011;1668;49.648;8.570;2022-10-18T15:02:49;6.60;;;3.87;;
3311;SDS011;1668;49.648;8.570;2022-10-18T15:05:18;5.50;;;3.47;;
3311;SDS011;1668;49.648;8.570;2022-10-18T15:07:48;3.90;;;3.30;;
3311;SDS011;1668;49.648;8.570;2022-10-18T15:10:17;4.80;;;3.43;;
3311;SDS011;1668;49.648;8.570;2022-10-18T15:12:47;5.47;;;3.90;;
3311;SDS011;1668;49.648;8.570;2022-10-18T15:15:16;4.73;;;3.27;;
3311;SDS011;1668;49.648;8.570;2022-10-18T15:17:45;5.60;;;3.40;;
3311;SDS011;1668;49.648;8.570;2022-10-18T15:20:20;4.13;;;3.17;;
3311;SDS011;1668;49.648;8.570;2022-10-18T15:22:51;6.10;;;2.90;;
3311;SDS011;1668;49.648;8.570;2022-10-18T15:25:21;4.43;;;3.23;;
3311;SDS011;1668;49.648;8.570;2022-10-18T15:27:51;17.20;;;3.80;;
3311;SDS011;1668;49.648;8.570;2022-10-18T15:30:22;10.80;;;4.70;;
3311;SDS011;1668;49.648;8.570;2022-10-18T15:32:52;3.63;;;1.50;;
3311;SDS011;1668;49.648;8.570;2022-10-18T15:35:22;1.50;;;1.10;;
3311;SDS011;1668;49.648;8.570;2022-10-18T15:37:52;2.20;;;1.27;;
3311;SDS011;1668;49.648;8.570;2022-10-18T15:40:31;2.27;;;1.03;;
3311;SDS011;1668;49.648;8.570;2022-10-18T15:43:03;1.30;;;1.00;;
3311;SDS011;1668;49.648;8.570;2022-10-18T15:45:33;3.30;;;1.20;;
3311;SDS011;1668;49.648;8.570;2022-10-18T15:48:16;8.97;;;1.70;;
3311;SDS011;1668;49.648;8.570;2022-10-18T15:50:46;6.03;;;2.03;;
3311;SDS011;1668;49.648;8.570;2022-10-18T15:53:28;10.30;;;1.93;;
3311;SDS011;1668;49.648;8.570;2022-10-18T15:56:02;3.87;;;2.17;;
3311;SDS011;1668;49.648;8.570;2022-10-18T15:58:36;4.10;;;1.67;;
3311;SDS011;1668;49.648;8.570;2022-10-18T16:01:06;2.13;;;1.40;;